sensor_id;sensor_type;location;lat;lon;timestamp;temperature;humidity
55365;DHT22;41245;45.384;20.390;2023-04-06T03:57:33;102.60;2227.20
55365;DHT22;41245;45.384;20.390;2023-04-06T03:59:59;102.50;2227.20
55365;DHT22;41245;45.384;20.390;2023-04-06T08:42:52;230.90;2252.80
55365;DHT22;41245;45.384;20.390;2023-04-06T08:45:19;230.60;2252.80
55365;DHT22;41245;45.384;20.390;2023-04-06T08:47:52;231.00;2252.80
55365;DHT22;41245;45.384;20.390;2023-04-06T08:50:20;231.00;2252.80
55365;DHT22;41245;45.384;20.390;2023-04-06T08:52:49;231.00;2252.80
55365;DHT22;41245;45.384;20.390;2023-04-06T08:55:15;230.80;2252.80
55365;DHT22;41245;45.384;20.390;2023-04-06T08:57:42;230.90;2252.80
55365;DHT22;41245;45.384;20.390;2023-04-06T09:00:10;230.70;2252.80
55365;DHT22;41245;45.384;20.390;2023-04-06T09:02:41;230.80;2252.80
55365;DHT22;41245;45.384;20.390;2023-04-06T09:05:08;231.10;2252.80
55365;DHT22;41245;45.384;20.390;2023-04-06T09:10:01;256.20;2252.80
55365;DHT22;41245;45.384;20.390;2023-04-06T09:12:29;231.20;2252.80
55365;DHT22;41245;45.384;20.390;2023-04-06T09:14:56;231.20;2252.80
55365;DHT22;41245;45.384;20.390;2023-04-06T09:17:22;231.20;2252.80
55365;DHT22;41245;45.384;20.390;2023-04-06T09:19:48;231.20;2252.80
55365;DHT22;41245;45.384;20.390;2023-04-06T09:22:14;256.30;2252.80
55365;DHT22;41245;45.384;20.390;2023-04-06T09:25:00;231.10;2252.80
55365;DHT22;41245;45.384;20.390;2023-04-06T09:27:38;231.20;2252.80
55365;DHT22;41245;45.384;20.390;2023-04-06T09:30:08;231.30;2252.80
55365;DHT22;41245;45.384;20.390;2023-04-06T09:33:04;231.10;2252.80
55365;DHT22;41245;45.384;20.390;2023-04-06T09:35:30;231.20;2252.80
55365;DHT22;41245;45.384;20.390;2023-04-06T09:37:58;231.00;2252.80
55365;DHT22;41245;45.384;20.390;2023-04-06T09:40:23;231.10;2252.80
55365;DHT22;41245;45.384;20.390;2023-04-06T09:42:50;231.10;2252.80
55365;DHT22;41245;45.384;20.390;2023-04-06T09:45:18;231.20;2252.80
55365;DHT22;41245;45.384;20.390;2023-04-06T09:47:44;231.10;2252.80
55365;DHT22;41245;45.384;20.390;2023-04-06T09:50:12;231.30;2252.80
55365;DHT22;41245;45.384;20.390;2023-04-06T09:52:50;231.00;2252.80
55365;DHT22;41245;45.384;20.390;2023-04-06T09:55:42;231.20;2252.80
55365;DHT22;41245;45.384;20.390;2023-04-06T09:58:16;231.30;2252.80
55365;DHT22;41245;45.384;20.390;2023-04-06T10:01:01;231.30;2252.80
55365;DHT22;41245;45.384;20.390;2023-04-06T10:06:05;256.10;2252.80
55365;DHT22;41245;45.384;20.390;2023-04-06T10:08:37;231.00;2252.80
55365;DHT22;41245;45.384;20.390;2023-04-06T10:11:06;231.20;2252.80
55365;DHT22;41245;45.384;20.390;2023-04-06T10:13:31;230.90;2252.80
55365;DHT22;41245;45.384;20.390;2023-04-06T10:15:59;256.00;2252.80
55365;DHT22;41245;45.384;20.390;2023-04-06T10:18:26;256.20;2252.80
55365;DHT22;41245;45.384;20.390;2023-04-06T10:21:00;256.00;2252.80
55365;DHT22;41245;45.384;20.390;2023-04-06T10:25:57;256.30;2252.80
55365;DHT22;41245;45.384;20.390;2023-04-06T10:43:22;307.80;2304.00
55365;DHT22;41245;45.384;20.390;2023-04-06T10:48:39;333.60;2329.60
55365;DHT22;41245;45.384;20.390;2023-04-06T10:51:13;333.70;2329.60
55365;DHT22;41245;45.384;20.390;2023-04-06T10:53:41;307.70;2304.00
55365;DHT22;41245;45.384;20.390;2023-04-06T10:56:12;282.50;2278.40
55365;DHT22;41245;45.384;20.390;2023-04-06T10:58:38;282.30;2278.40
55365;DHT22;41245;45.384;20.390;2023-04-06T11:01:04;282.50;2278.40
55365;DHT22;41245;45.384;20.390;2023-04-06T11:03:30;282.40;2278.40
55365;DHT22;41245;45.384;20.390;2023-04-06T11:05:57;282.20;2278.40
55365;DHT22;41245;45.384;20.390;2023-04-06T11:08:29;307.40;2304.00
55365;DHT22;41245;45.384;20.390;2023-04-06T11:11:08;307.70;2304.00
55365;DHT22;41245;45.384;20.390;2023-04-06T11:16:21;333.00;2329.60
55365;DHT22;41245;45.384;20.390;2023-04-06T11:21:46;307.70;2304.00
55365;DHT22;41245;45.384;20.390;2023-04-06T11:29:16;308.10;2304.00
55365;DHT22;41245;45.384;20.390;2023-04-06T11:31:45;307.80;2304.00
55365;DHT22;41245;45.384;20.390;2023-04-06T11:34:17;308.10;2304.00
55365;DHT22;41245;45.384;20.390;2023-04-06T11:36:45;308.00;2304.00
55365;DHT22;41245;45.384;20.390;2023-04-06T11:39:22;308.00;2304.00
55365;DHT22;41245;45.384;20.390;2023-04-06T11:41:53;307.80;2304.00
55365;DHT22;41245;45.384;20.390;2023-04-06T11:44:40;307.70;2304.00
55365;DHT22;41245;45.384;20.390;2023-04-06T11:47:09;307.70;2304.00
55365;DHT22;41245;45.384;20.390;2023-04-06T11:49:40;307.80;2304.00
55365;DHT22;41245;45.384;20.390;2023-04-06T11:52:26;307.90;2304.00
55365;DHT22;41245;45.384;20.390;2023-04-06T11:54:53;307.90;2304.00
55365;DHT22;41245;45.384;20.390;2023-04-06T11:57:20;307.90;2304.00
55365;DHT22;41245;45.384;20.390;2023-04-06T11:59:47;308.00;2304.00
55365;DHT22;41245;45.384;20.390;2023-04-06T12:02:12;333.00;2329.60
55365;DHT22;41245;45.384;20.390;2023-04-06T12:04:38;333.10;2329.60
55365;DHT22;41245;45.384;20.390;2023-04-06T12:07:04;307.90;2304.00
55365;DHT22;41245;45.384;20.390;2023-04-06T12:09:30;308.10;2304.00
55365;DHT22;41245;45.384;20.390;2023-04-06T12:11:56;332.80;2329.60
55365;DHT22;41245;45.384;20.390;2023-04-06T12:14:23;308.10;2304.00
55365;DHT22;41245;45.384;20.390;2023-04-06T12:16:49;307.90;2304.00
55365;DHT22;41245;45.384;20.390;2023-04-06T12:19:14;308.00;2304.00
55365;DHT22;41245;45.384;20.390;2023-04-06T12:21:40;307.60;2304.00
55365;DHT22;41245;45.384;20.390;2023-04-06T12:24:06;307.40;2304.00
55365;DHT22;41245;45.384;20.390;2023-04-06T12:26:33;307.40;2304.00
55365;DHT22;41245;45.384;20.390;2023-04-06T12:28:59;307.30;2304.00
55365;DHT22;41245;45.384;20.390;2023-04-06T12:31:33;307.20;2304.00
55365;DHT22;41245;45.384;20.390;2023-04-06T12:34:00;307.50;2304.00
55365;DHT22;41245;45.384;20.390;2023-04-06T12:36:27;307.70;2304.00
55365;DHT22;41245;45.384;20.390;2023-04-06T12:38:53;307.90;2304.00
55365;DHT22;41245;45.384;20.390;2023-04-06T12:41:19;307.80;2304.00
55365;DHT22;41245;45.384;20.390;2023-04-06T12:43:45;308.10;2304.00
55365;DHT22;41245;45.384;20.390;2023-04-06T12:46:12;332.80;2329.60
55365;DHT22;41245;45.384;20.390;2023-04-06T12:48:37;307.80;2304.00
55365;DHT22;41245;45.384;20.390;2023-04-06T12:51:05;307.80;2304.00
55365;DHT22;41245;45.384;20.390;2023-04-06T12:53:32;307.70;2304.00
55365;DHT22;41245;45.384;20.390;2023-04-06T12:55:58;307.70;2304.00
55365;DHT22;41245;45.384;20.390;2023-04-06T12:58:24;307.90;2304.00
55365;DHT22;41245;45.384;20.390;2023-04-06T13:00:53;308.10;2304.00
55365;DHT22;41245;45.384;20.390;2023-04-06T13:03:21;308.10;2304.00
55365;DHT22;41245;45.384;20.390;2023-04-06T13:05:51;332.80;2329.60
55365;DHT22;41245;45.384;20.390;2023-04-06T13:08:18;332.80;2329.60
55365;DHT22;41245;45.384;20.390;2023-04-06T13:10:48;308.00;2304.00
55365;DHT22;41245;45.384;20.390;2023-04-06T13:13:17;307.70;2304.00
55365;DHT22;41245;45.384;20.390;2023-04-06T13:15:44;308.00;2304.00
55365;DHT22;41245;45.384;20.390;2023-04-06T13:18:10;308.00;2304.00
55365;DHT22;41245;45.384;20.390;2023-04-06T13:20:36;308.00;2304.00
55365;DHT22;41245;45.384;20.390;2023-04-06T13:23:02;307.80;2304.00
55365;DHT22;41245;45.384;20.390;2023-04-06T13:25:28;307.60;2304.00
55365;DHT22;41245;45.384;20.390;2023-04-06T13:27:54;307.60;2304.00
55365;DHT22;41245;45.384;20.390;2023-04-06T13:30:21;308.00;2304.00
55365;DHT22;41245;45.384;20.390;2023-04-06T13:32:47;308.00;2304.00
55365;DHT22;41245;45.384;20.390;2023-04-06T13:35:12;332.80;2329.60
55365;DHT22;41245;45.384;20.390;2023-04-06T13:37:38;333.00;2329.60
55365;DHT22;41245;45.384;20.390;2023-04-06T13:40:05;333.00;2329.60
55365;DHT22;41245;45.384;20.390;2023-04-06T13:42:31;332.90;2329.60
55365;DHT22;41245;45.384;20.390;2023-04-06T13:44:58;332.90;2329.60
55365;DHT22;41245;45.384;20.390;2023-04-06T13:47:24;332.90;2329.60
55365;DHT22;41245;45.384;20.390;2023-04-06T13:49:50;308.10;2304.00
55365;DHT22;41245;45.384;20.390;2023-04-06T13:52:20;332.90;2329.60
55365;DHT22;41245;45.384;20.390;2023-04-06T13:54:46;332.90;2329.60
55365;DHT22;41245;45.384;20.390;2023-04-06T13:57:12;333.00;2329.60
55365;DHT22;41245;45.384;20.390;2023-04-06T14:02:09;333.50;2329.60
55365;DHT22;41245;45.384;20.390;2023-04-06T14:04:35;333.40;2329.60
55365;DHT22;41245;45.384;20.390;2023-04-06T14:07:02;333.30;2329.60
55365;DHT22;41245;45.384;20.390;2023-04-06T14:09:28;333.30;2329.60
55365;DHT22;41245;45.384;20.390;2023-04-06T14:11:55;333.30;2329.60
55365;DHT22;41245;45.384;20.390;2023-04-06T14:14:21;333.10;2329.60
55365;DHT22;41245;45.384;20.390;2023-04-06T14:16:47;332.90;2329.60
55365;DHT22;41245;45.384;20.390;2023-04-06T14:19:15;332.80;2329.60
55365;DHT22;41245;45.384;20.390;2023-04-06T14:21:44;332.80;2329.60
55365;DHT22;41245;45.384;20.390;2023-04-06T14:24:11;332.80;2329.60
55365;DHT22;41245;45.384;20.390;2023-04-06T14:26:37;308.10;2304.00
55365;DHT22;41245;45.384;20.390;2023-04-06T14:29:04;332.80;2329.60
55365;DHT22;41245;45.384;20.390;2023-04-06T14:31:30;308.10;2304.00
55365;DHT22;41245;45.384;20.390;2023-04-06T14:33:56;308.10;2304.00
55365;DHT22;41245;45.384;20.390;2023-04-06T14:36:22;308.00;2304.00
55365;DHT22;41245;45.384;20.390;2023-04-06T14:38:48;307.90;2304.00
55365;DHT22;41245;45.384;20.390;2023-04-06T14:41:23;307.70;2304.00
55365;DHT22;41245;45.384;20.390;2023-04-06T14:43:49;307.60;2304.00
55365;DHT22;41245;45.384;20.390;2023-04-06T14:46:16;307.70;2304.00
55365;DHT22;41245;45.384;20.390;2023-04-06T14:48:42;307.70;2304.00
55365;DHT22;41245;45.384;20.390;2023-04-06T14:51:07;307.40;2304.00
55365;DHT22;41245;45.384;20.390;2023-04-06T14:53:33;307.50;2304.00
55365;DHT22;41245;45.384;20.390;2023-04-06T14:55:59;307.60;2304.00
55365;DHT22;41245;45.384;20.390;2023-04-06T14:58:25;307.50;2304.00
55365;DHT22;41245;45.384;20.390;2023-04-06T15:00:56;307.30;2304.00
55365;DHT22;41245;45.384;20.390;2023-04-06T15:03:23;282.50;2278.40
55365;DHT22;41245;45.384;20.390;2023-04-06T15:05:51;282.40;2278.40
55365;DHT22;41245;45.384;20.390;2023-04-06T15:08:16;282.40;2278.40
55365;DHT22;41245;45.384;20.390;2023-04-06T15:10:46;282.00;2278.40
55365;DHT22;41245;45.384;20.390;2023-04-06T15:54:50;256.80;2252.80
55365;DHT22;41245;45.384;20.390;2023-04-06T15:57:15;256.60;2252.80
55365;DHT22;41245;45.384;20.390;2023-04-06T15:59:41;256.60;2252.80
55365;DHT22;41245;45.384;20.390;2023-04-06T16:02:07;256.50;2252.80
55365;DHT22;41245;45.384;20.390;2023-04-06T16:41:20;256.30;2252.80
55365;DHT22;41245;45.384;20.390;2023-04-06T16:43:46;256.10;2252.80
55365;DHT22;41245;45.384;20.390;2023-04-06T16:46:11;256.10;2252.80
55365;DHT22;41245;45.384;20.390;2023-04-06T16:48:37;256.00;2252.80
55365;DHT22;41245;45.384;20.390;2023-04-06T16:51:06;256.00;2252.80
55365;DHT22;41245;45.384;20.390;2023-04-06T16:53:33;256.00;2252.80
55365;DHT22;41245;45.384;20.390;2023-04-06T16:55:58;231.30;2252.80
55365;DHT22;41245;45.384;20.390;2023-04-06T17:00:50;230.70;2252.80
55365;DHT22;41245;45.384;20.390;2023-04-06T17:05:42;205.10;2252.80
55365;DHT22;41245;45.384;20.390;2023-04-06T17:08:09;204.90;2252.80
55365;DHT22;41245;45.384;20.390;2023-04-06T17:10:35;180.10;2252.80
55365;DHT22;41245;45.384;20.390;2023-04-06T17:13:00;179.80;2252.80
55365;DHT22;41245;45.384;20.390;2023-04-06T17:15:26;179.70;2252.80
55365;DHT22;41245;45.384;20.390;2023-04-06T17:17:53;179.40;2252.80
55365;DHT22;41245;45.384;20.390;2023-04-06T17:20:19;179.40;2252.80
55365;DHT22;41245;45.384;20.390;2023-04-06T17:22:44;179.20;2252.80
55365;DHT22;41245;45.384;20.390;2023-04-06T17:25:11;154.50;2252.80
55365;DHT22;41245;45.384;20.390;2023-04-06T17:27:37;154.50;2252.80
55365;DHT22;41245;45.384;20.390;2023-04-06T17:30:03;179.20;2252.80
55365;DHT22;41245;45.384;20.390;2023-04-06T17:32:32;154.50;2252.80
55365;DHT22;41245;45.384;20.390;2023-04-06T17:34:58;154.20;2252.80
55365;DHT22;41245;45.384;20.390;2023-04-06T17:37:24;154.20;2252.80
55365;DHT22;41245;45.384;20.390;2023-04-06T17:39:50;154.20;2252.80
55365;DHT22;41245;45.384;20.390;2023-04-06T17:42:15;154.20;2252.80
55365;DHT22;41245;45.384;20.390;2023-04-06T17:44:42;154.30;2252.80
55365;DHT22;41245;45.384;20.390;2023-04-06T17:47:09;154.20;2252.80
55365;DHT22;41245;45.384;20.390;2023-04-06T17:49:35;154.20;2252.80
55365;DHT22;41245;45.384;20.390;2023-04-06T17:52:00;154.00;2252.80
55365;DHT22;41245;45.384;20.390;2023-04-06T17:54:26;154.10;2252.80
55365;DHT22;41245;45.384;20.390;2023-04-06T17:56:51;154.20;2252.80
55365;DHT22;41245;45.384;20.390;2023-04-06T17:59:18;154.10;2252.80
55365;DHT22;41245;45.384;20.390;2023-04-06T18:01:43;154.10;2252.80
55365;DHT22;41245;45.384;20.390;2023-04-06T18:04:09;153.90;2252.80
55365;DHT22;41245;45.384;20.390;2023-04-06T18:06:35;153.80;2252.80
55365;DHT22;41245;45.384;20.390;2023-04-06T18:09:01;153.80;2252.80
55365;DHT22;41245;45.384;20.390;2023-04-06T18:11:28;153.80;2252.80
55365;DHT22;41245;45.384;20.390;2023-04-06T18:13:55;153.80;2252.80
55365;DHT22;41245;45.384;20.390;2023-04-06T18:16:21;153.90;2252.80
55365;DHT22;41245;45.384;20.390;2023-04-06T18:18:47;153.90;2252.80
55365;DHT22;41245;45.384;20.390;2023-04-06T18:21:12;153.90;2252.80
55365;DHT22;41245;45.384;20.390;2023-04-06T18:23:38;153.80;2252.80
55365;DHT22;41245;45.384;20.390;2023-04-06T18:26:04;153.60;2252.80
55365;DHT22;41245;45.384;20.390;2023-04-06T18:28:30;128.90;2252.80
55365;DHT22;41245;45.384;20.390;2023-04-06T18:30:59;128.90;2252.80
55365;DHT22;41245;45.384;20.390;2023-04-06T18:33:26;128.80;2252.80
55365;DHT22;41245;45.384;20.390;2023-04-06T18:35:52;128.80;2252.80
55365;DHT22;41245;45.384;20.390;2023-04-06T18:38:20;153.60;2252.80
55365;DHT22;41245;45.384;20.390;2023-04-06T18:40:45;128.90;2252.80
55365;DHT22;41245;45.384;20.390;2023-04-06T18:43:11;153.60;2252.80
55365;DHT22;41245;45.384;20.390;2023-04-06T18:45:37;153.70;2252.80
55365;DHT22;41245;45.384;20.390;2023-04-06T18:48:07;153.60;2252.80
55365;DHT22;41245;45.384;20.390;2023-04-06T18:50:33;128.80;2252.80
55365;DHT22;41245;45.384;20.390;2023-04-06T18:52:58;153.60;2252.80
55365;DHT22;41245;45.384;20.390;2023-04-06T18:55:25;128.90;2252.80
55365;DHT22;41245;45.384;20.390;2023-04-06T18:57:51;128.80;2252.80
55365;DHT22;41245;45.384;20.390;2023-04-06T19:00:16;128.80;2252.80
55365;DHT22;41245;45.384;20.390;2023-04-06T19:02:43;128.50;2252.80
55365;DHT22;41245;45.384;20.390;2023-04-06T19:05:12;128.60;2252.80
55365;DHT22;41245;45.384;20.390;2023-04-06T19:07:38;128.60;2252.80
55365;DHT22;41245;45.384;20.390;2023-04-06T19:10:05;128.60;2252.80
55365;DHT22;41245;45.384;20.390;2023-04-06T19:12:36;128.60;2252.80
55365;DHT22;41245;45.384;20.390;2023-04-06T19:15:05;128.30;2252.80
55365;DHT22;41245;45.384;20.390;2023-04-06T19:17:31;128.50;2252.80
55365;DHT22;41245;45.384;20.390;2023-04-06T19:19:57;128.20;2252.80
55365;DHT22;41245;45.384;20.390;2023-04-06T19:22:23;128.40;1433.60
55365;DHT22;41245;45.384;20.390;2023-04-06T19:24:49;128.40;1638.40
55365;DHT22;41245;45.384;20.390;2023-04-06T19:27:15;128.20;1382.40
55365;DHT22;41245;45.384;20.390;2023-04-06T19:29:41;128.40;128.00
55365;DHT22;41245;45.384;20.390;2023-04-06T19:32:06;128.30;1331.20
55365;DHT22;41245;45.384;20.390;2023-04-06T19:34:35;128.20;204.80
55365;DHT22;41245;45.384;20.390;2023-04-06T19:37:01;128.20;921.60
55365;DHT22;41245;45.384;20.390;2023-04-06T19:39:27;128.10;1177.60
55365;DHT22;41245;45.384;20.390;2023-04-06T19:41:53;128.20;768.00
55365;DHT22;41245;45.384;20.390;2023-04-06T19:44:19;103.30;665.60
55365;DHT22;41245;45.384;20.390;2023-04-06T19:46:44;128.10;1356.80
55365;DHT22;41245;45.384;20.390;2023-04-06T19:49:11;128.00;1331.20
55365;DHT22;41245;45.384;20.390;2023-04-06T19:51:37;128.10;1689.60
55365;DHT22;41245;45.384;20.390;2023-04-06T19:54:04;128.00;2048.00
55365;DHT22;41245;45.384;20.390;2023-04-06T19:56:30;103.30;2227.20
55365;DHT22;41245;45.384;20.390;2023-04-06T19:58:57;103.20;2022.40
55365;DHT22;41245;45.384;20.390;2023-04-06T20:01:23;103.10;1638.40
55365;DHT22;41245;45.384;20.390;2023-04-06T20:03:49;128.10;1024.00
55365;DHT22;41245;45.384;20.390;2023-04-06T20:06:14;103.20;1766.40
55365;DHT22;41245;45.384;20.390;2023-04-06T20:08:41;103.20;1587.20
55365;DHT22;41245;45.384;20.390;2023-04-06T20:11:07;128.10;2150.40
55365;DHT22;41245;45.384;20.390;2023-04-06T20:13:34;128.10;2252.80
55365;DHT22;41245;45.384;20.390;2023-04-06T20:16:00;128.20;2252.80
55365;DHT22;41245;45.384;20.390;2023-04-06T20:18:26;128.20;2252.80
55365;DHT22;41245;45.384;20.390;2023-04-06T20:20:51;128.20;2252.80
55365;DHT22;41245;45.384;20.390;2023-04-06T20:23:19;128.10;2252.80
55365;DHT22;41245;45.384;20.390;2023-04-06T20:25:44;128.00;2252.80
55365;DHT22;41245;45.384;20.390;2023-04-06T20:28:10;128.00;2252.80
55365;DHT22;41245;45.384;20.390;2023-04-06T20:30:36;128.20;2252.80
55365;DHT22;41245;45.384;20.390;2023-04-06T20:33:02;128.20;2252.80
55365;DHT22;41245;45.384;20.390;2023-04-06T20:35:28;128.20;2252.80
55365;DHT22;41245;45.384;20.390;2023-04-06T20:37:55;128.30;2252.80
55365;DHT22;41245;45.384;20.390;2023-04-06T20:40:21;128.50;2252.80
55365;DHT22;41245;45.384;20.390;2023-04-06T20:42:47;128.40;2252.80
55365;DHT22;41245;45.384;20.390;2023-04-06T20:45:13;128.40;2252.80
55365;DHT22;41245;45.384;20.390;2023-04-06T20:47:39;128.60;2252.80
55365;DHT22;41245;45.384;20.390;2023-04-06T20:50:05;128.50;2252.80
55365;DHT22;41245;45.384;20.390;2023-04-06T20:52:31;128.40;2252.80
55365;DHT22;41245;45.384;20.390;2023-04-06T20:54:57;128.50;2252.80
55365;DHT22;41245;45.384;20.390;2023-04-06T20:57:26;128.60;2252.80
55365;DHT22;41245;45.384;20.390;2023-04-06T20:59:52;128.80;2252.80
55365;DHT22;41245;45.384;20.390;2023-04-06T21:02:17;153.60;2252.80
55365;DHT22;41245;45.384;20.390;2023-04-06T21:04:43;153.60;2252.80
55365;DHT22;41245;45.384;20.390;2023-04-06T21:07:09;153.80;2252.80
55365;DHT22;41245;45.384;20.390;2023-04-06T21:09:37;128.90;2252.80
55365;DHT22;41245;45.384;20.390;2023-04-06T21:12:04;154.00;2252.80
55365;DHT22;41245;45.384;20.390;2023-04-06T21:14:30;154.00;2252.80
55365;DHT22;41245;45.384;20.390;2023-04-06T21:16:56;154.20;2252.80
55365;DHT22;41245;45.384;20.390;2023-04-06T21:19:22;154.20;2252.80
55365;DHT22;41245;45.384;20.390;2023-04-06T21:21:48;154.20;2252.80
55365;DHT22;41245;45.384;20.390;2023-04-06T21:24:14;154.20;2252.80
55365;DHT22;41245;45.384;20.390;2023-04-06T21:26:40;154.30;2252.80
55365;DHT22;41245;45.384;20.390;2023-04-06T21:29:05;154.20;2252.80
55365;DHT22;41245;45.384;20.390;2023-04-06T21:31:31;154.30;2252.80
55365;DHT22;41245;45.384;20.390;2023-04-06T21:33:59;154.30;2252.80
55365;DHT22;41245;45.384;20.390;2023-04-06T21:36:25;154.30;2252.80
55365;DHT22;41245;45.384;20.390;2023-04-06T21:38:51;154.40;2252.80
55365;DHT22;41245;45.384;20.390;2023-04-06T21:41:16;154.40;2252.80
55365;DHT22;41245;45.384;20.390;2023-04-06T21:43:42;154.40;2252.80
55365;DHT22;41245;45.384;20.390;2023-04-06T21:46:08;154.40;2252.80
55365;DHT22;41245;45.384;20.390;2023-04-06T21:48:34;154.50;2252.80
55365;DHT22;41245;45.384;20.390;2023-04-06T21:51:00;154.40;2252.80
55365;DHT22;41245;45.384;20.390;2023-04-06T21:53:25;154.40;2252.80
55365;DHT22;41245;45.384;20.390;2023-04-06T21:55:51;154.40;2252.80
55365;DHT22;41245;45.384;20.390;2023-04-06T21:58:17;154.40;2252.80
55365;DHT22;41245;45.384;20.390;2023-04-06T22:00:42;154.40;2252.80
55365;DHT22;41245;45.384;20.390;2023-04-06T22:03:08;154.40;2252.80
55365;DHT22;41245;45.384;20.390;2023-04-06T22:05:35;154.30;2252.80
55365;DHT22;41245;45.384;20.390;2023-04-06T22:08:03;154.30;2252.80
55365;DHT22;41245;45.384;20.390;2023-04-06T22:10:29;154.20;2252.80
55365;DHT22;41245;45.384;20.390;2023-04-06T22:12:55;154.30;2252.80
55365;DHT22;41245;45.384;20.390;2023-04-06T22:15:20;154.30;2252.80
55365;DHT22;41245;45.384;20.390;2023-04-06T22:17:46;154.30;2252.80
55365;DHT22;41245;45.384;20.390;2023-04-06T22:20:12;154.20;2252.80
55365;DHT22;41245;45.384;20.390;2023-04-06T22:22:37;154.20;2252.80
55365;DHT22;41245;45.384;20.390;2023-04-06T22:25:03;154.20;2252.80
55365;DHT22;41245;45.384;20.390;2023-04-06T22:27:29;154.10;2252.80
55365;DHT22;41245;45.384;20.390;2023-04-06T22:29:55;154.30;2252.80
55365;DHT22;41245;45.384;20.390;2023-04-06T22:32:21;154.30;2252.80
55365;DHT22;41245;45.384;20.390;2023-04-06T22:34:46;154.30;2252.80
55365;DHT22;41245;45.384;20.390;2023-04-06T22:37:12;154.30;2252.80
55365;DHT22;41245;45.384;20.390;2023-04-06T22:39:38;154.30;2252.80
55365;DHT22;41245;45.384;20.390;2023-04-06T22:42:03;154.20;2252.80
55365;DHT22;41245;45.384;20.390;2023-04-06T22:44:30;154.20;2252.80
55365;DHT22;41245;45.384;20.390;2023-04-06T22:46:56;154.20;2252.80
55365;DHT22;41245;45.384;20.390;2023-04-06T22:49:21;154.30;2252.80
55365;DHT22;41245;45.384;20.390;2023-04-06T22:51:47;154.30;2252.80
55365;DHT22;41245;45.384;20.390;2023-04-06T22:54:13;154.20;2252.80
55365;DHT22;41245;45.384;20.390;2023-04-06T22:56:39;154.30;2252.80
55365;DHT22;41245;45.384;20.390;2023-04-06T22:59:05;154.30;2252.80
55365;DHT22;41245;45.384;20.390;2023-04-06T23:01:31;154.10;2252.80
55365;DHT22;41245;45.384;20.390;2023-04-06T23:03:56;154.00;2252.80
55365;DHT22;41245;45.384;20.390;2023-04-06T23:06:22;154.00;2252.80
55365;DHT22;41245;45.384;20.390;2023-04-06T23:08:47;154.10;2252.80
55365;DHT22;41245;45.384;20.390;2023-04-06T23:11:13;154.20;2252.80
55365;DHT22;41245;45.384;20.390;2023-04-06T23:13:39;154.20;2252.80
55365;DHT22;41245;45.384;20.390;2023-04-06T23:16:05;154.30;2252.80
55365;DHT22;41245;45.384;20.390;2023-04-06T23:18:33;154.20;2252.80
55365;DHT22;41245;45.384;20.390;2023-04-06T23:20:59;154.30;2252.80
55365;DHT22;41245;45.384;20.390;2023-04-06T23:23:24;154.30;2252.80
55365;DHT22;41245;45.384;20.390;2023-04-06T23:25:50;154.40;2252.80
55365;DHT22;41245;45.384;20.390;2023-04-06T23:28:16;154.40;2252.80
55365;DHT22;41245;45.384;20.390;2023-04-06T23:30:42;154.40;2252.80
55365;DHT22;41245;45.384;20.390;2023-04-06T23:33:07;154.50;2252.80
55365;DHT22;41245;45.384;20.390;2023-04-06T23:35:33;154.50;2252.80
55365;DHT22;41245;45.384;20.390;2023-04-06T23:37:59;154.50;2252.80
55365;DHT22;41245;45.384;20.390;2023-04-06T23:40:24;154.50;2252.80
55365;DHT22;41245;45.384;20.390;2023-04-06T23:42:50;179.20;2252.80
55365;DHT22;41245;45.384;20.390;2023-04-06T23:45:16;179.20;2252.80
55365;DHT22;41245;45.384;20.390;2023-04-06T23:47:42;179.20;2252.80
55365;DHT22;41245;45.384;20.390;2023-04-06T23:50:07;179.20;2252.80
55365;DHT22;41245;45.384;20.390;2023-04-06T23:52:33;154.50;2252.80
55365;DHT22;41245;45.384;20.390;2023-04-06T23:54:59;154.50;2252.80
55365;DHT22;41245;45.384;20.390;2023-04-06T23:57:25;154.50;2252.80
55365;DHT22;41245;45.384;20.390;2023-04-06T23:59:50;154.40;2252.80
